Time,TemperatureF,DewpointF,PressureIn,WindDirection,WindDirectionDegrees,WindSpeedMPH,WindSpeedGustMPH,Humidity,HourlyPrecipIn,Conditions,Clouds,dailyrainin,SolarRadiationWatts/m^2,SoftwareType,DateUTC
2013-08-12 00:02:00,70.0,60.0,-100.00,SSW,204,3.0,5.0,71,0.00,,,0.00,0.000000,,2013-08-12 05:02:00,
2013-08-12 00:32:00,71.0,62.0,-100.00,SSW,206,6.0,8.0,74,0.00,,,0.00,0.000000,,2013-08-12 05:32:00,
2013-08-12 00:43:00,71.0,62.0,-100.00,SSW,206,6.0,8.0,74,0.00,,,0.00,0.000000,,2013-08-12 05:43:00,
2013-08-12 00:52:00,71.0,62.0,-100.00,SSW,206,6.0,8.0,74,0.00,,,0.00,0.000000,,2013-08-12 05:52:00,
2013-08-12 01:01:00,71.0,62.0,-100.00,SSW,206,6.0,8.0,74,0.00,,,0.00,0.000000,,2013-08-12 06:01:00,
2013-08-12 01:32:00,72.0,64.0,-100.00,SSW,211,6.0,11.0,75,0.00,,,0.00,0.000000,,2013-08-12 06:32:00,
2013-08-12 01:42:00,72.0,64.0,-100.00,SSW,211,6.0,11.0,75,0.00,,,0.00,0.000000,,2013-08-12 06:42:00,
2013-08-12 01:52:00,72.0,64.0,-100.00,SSW,211,6.0,11.0,75,0.00,,,0.00,0.000000,,2013-08-12 06:52:00,
2013-08-12 02:01:00,72.0,64.0,-100.00,SSW,211,6.0,11.0,75,0.00,,,0.00,0.000000,,2013-08-12 07:01:00,
2013-08-12 02:33:00,72.0,65.0,-100.00,West,272,1.0,11.0,79,0.00,,,0.00,0.000000,,2013-08-12 07:33:00,
2013-08-12 02:43:00,72.0,65.0,-100.00,West,272,1.0,11.0,79,0.00,,,0.00,0.000000,,2013-08-12 07:43:00,
2013-08-12 02:52:00,72.0,65.0,-100.00,West,272,1.0,11.0,79,0.00,,,0.00,0.000000,,2013-08-12 07:52:00,
2013-08-12 03:02:00,72.0,65.0,-100.00,West,272,1.0,11.0,79,0.00,,,0.00,0.000000,,2013-08-12 08:02:00,
2013-08-12 03:33:00,71.0,64.0,-100.00,NNE,20,1.0,17.0,78,0.00,,,0.00,0.000000,,2013-08-12 08:33:00,
2013-08-12 03:43:00,71.0,64.0,-100.00,NNE,20,1.0,17.0,78,0.00,,,0.00,0.000000,,2013-08-12 08:43:00,
2013-08-12 03:53:00,71.0,64.0,-100.00,NNE,20,1.0,17.0,78,0.00,,,0.00,0.000000,,2013-08-12 08:53:00,
2013-08-12 04:02:00,71.0,64.0,-100.00,NNE,20,1.0,17.0,78,0.00,,,0.00,0.000000,,2013-08-12 09:02:00,
2013-08-12 04:32:00,70.0,64.0,-100.00,NW,319,2.0,6.0,81,0.00,,,0.00,0.000000,,2013-08-12 09:32:00,
2013-08-12 04:43:00,70.0,64.0,-100.00,NW,319,2.0,6.0,81,0.00,,,0.00,0.000000,,2013-08-12 09:43:00,
2013-08-12 04:53:00,70.0,64.0,-100.00,NW,319,2.0,6.0,81,0.00,,,0.00,0.000000,,2013-08-12 09:53:00,
2013-08-12 05:02:00,70.0,64.0,-100.00,NW,319,2.0,6.0,81,0.00,,,0.00,0.000000,,2013-08-12 10:02:00,
2013-08-12 05:32:00,68.0,64.0,-100.00,SW,225,1.0,6.0,86,0.00,,,0.00,0.000000,,2013-08-12 10:32:00,
2013-08-12 05:43:00,68.0,64.0,-100.00,SW,225,1.0,6.0,86,0.00,,,0.00,0.000000,,2013-08-12 10:43:00,
2013-08-12 05:52:00,68.0,64.0,-100.00,SW,225,1.0,6.0,86,0.00,,,0.00,0.000000,,2013-08-12 10:52:00,
2013-08-12 06:02:00,68.0,64.0,-100.00,SW,225,1.0,6.0,86,0.00,,,0.00,0.000000,,2013-08-12 11:02:00,
2013-08-12 06:32:00,68.0,64.0,-100.00,SSW,206,3.0,6.0,88,0.00,,,0.00,0.000000,,2013-08-12 11:32:00,
2013-08-12 06:42:00,68.0,64.0,-100.00,SSW,206,3.0,6.0,88,0.00,,,0.00,0.000000,,2013-08-12 11:42:00,
2013-08-12 06:53:00,68.0,64.0,-100.00,SSW,206,3.0,6.0,88,0.00,,,0.00,0.000000,,2013-08-12 11:53:00,
2013-08-12 07:02:00,68.0,64.0,-100.00,SSW,206,3.0,6.0,88,0.00,,,0.00,0.000000,,2013-08-12 12:02:00,
2013-08-12 07:32:00,69.0,65.0,-100.00,WSW,249,2.0,7.0,88,0.00,,,0.00,9.000000,,2013-08-12 12:32:00,
2013-08-12 07:43:00,69.0,65.0,-100.00,WSW,249,2.0,7.0,88,0.00,,,0.00,9.000000,,2013-08-12 12:43:00,
2013-08-12 07:52:00,69.0,65.0,-100.00,WSW,249,2.0,7.0,88,0.00,,,0.00,9.000000,,2013-08-12 12:52:00,
2013-08-12 08:02:00,69.0,65.0,-100.00,WSW,249,2.0,7.0,88,0.00,,,0.00,9.000000,,2013-08-12 13:02:00,
2013-08-12 08:33:00,71.0,67.0,-100.00,SW,236,2.0,5.0,86,0.00,,,0.00,54.000000,,2013-08-12 13:33:00,
2013-08-12 08:43:00,71.0,67.0,-100.00,SW,236,2.0,5.0,86,0.00,,,0.00,54.000000,,2013-08-12 13:43:00,
2013-08-12 08:53:00,71.0,67.0,-100.00,SW,236,2.0,5.0,86,0.00,,,0.00,54.000000,,2013-08-12 13:53:00,
2013-08-12 09:02:00,71.0,67.0,-100.00,SW,236,2.0,5.0,86,0.00,,,0.00,54.000000,,2013-08-12 14:02:00,
2013-08-12 09:32:00,74.0,68.0,-100.00,NW,315,4.0,8.0,81,0.00,,,0.00,119.000000,,2013-08-12 14:32:00,
2013-08-12 09:42:00,74.0,68.0,-100.00,NW,315,4.0,8.0,81,0.00,,,0.00,119.000000,,2013-08-12 14:42:00,
2013-08-12 09:53:00,74.0,68.0,-100.00,NW,315,4.0,8.0,81,0.00,,,0.00,119.000000,,2013-08-12 14:53:00,
2013-08-12 10:02:00,74.0,68.0,-100.00,NW,315,4.0,8.0,81,0.00,,,0.00,119.000000,,2013-08-12 15:02:00,
2013-08-12 10:33:00,72.0,68.0,-100.00,NNE,26,5.0,14.0,86,0.00,,,0.00,160.000000,,2013-08-12 15:33:00,
2013-08-12 10:43:00,72.0,68.0,-100.00,NNE,26,5.0,14.0,86,0.00,,,0.00,160.000000,,2013-08-12 15:43:00,
2013-08-12 10:52:00,72.0,68.0,-100.00,NNE,26,5.0,14.0,86,0.00,,,0.00,160.000000,,2013-08-12 15:52:00,
2013-08-12 11:01:00,72.0,68.0,-100.00,NNE,26,5.0,14.0,86,0.00,,,0.00,160.000000,,2013-08-12 16:01:00,
2013-08-12 11:33:00,75.0,69.0,-100.00,North,350,6.0,12.0,82,0.00,,,0.00,282.000000,,2013-08-12 16:33:00,
2013-08-12 11:43:00,75.0,69.0,-100.00,North,350,6.0,12.0,82,0.00,,,0.00,282.000000,,2013-08-12 16:43:00,
2013-08-12 11:53:00,75.0,69.0,-100.00,North,350,6.0,12.0,82,0.00,,,0.00,282.000000,,2013-08-12 16:53:00,
2013-08-12 12:02:00,75.0,69.0,-100.00,North,350,6.0,12.0,82,0.00,,,0.00,282.000000,,2013-08-12 17:02:00,
2013-08-12 12:32:00,77.0,67.0,-100.00,North,11,8.0,14.0,72,0.00,,,0.00,461.000000,,2013-08-12 17:32:00,
2013-08-12 12:43:00,77.0,67.0,-100.00,North,11,8.0,14.0,72,0.00,,,0.00,461.000000,,2013-08-12 17:43:00,
2013-08-12 12:52:00,77.0,67.0,-100.00,North,11,8.0,14.0,72,0.00,,,0.00,461.000000,,2013-08-12 17:52:00,
2013-08-12 13:02:00,77.0,67.0,-100.00,North,11,8.0,14.0,72,0.00,,,0.00,461.000000,,2013-08-12 18:02:00,
2013-08-12 13:32:00,80.0,62.0,-100.00,NE,44,9.0,17.0,54,0.00,,,0.00,728.000000,,2013-08-12 18:32:00,
2013-08-12 13:43:00,80.0,62.0,-100.00,NE,44,9.0,17.0,54,0.00,,,0.00,728.000000,,2013-08-12 18:43:00,
2013-08-12 13:52:00,80.0,62.0,-100.00,NE,44,9.0,17.0,54,0.00,,,0.00,728.000000,,2013-08-12 18:52:00,
2013-08-12 14:02:00,80.0,62.0,-100.00,NE,44,9.0,17.0,54,0.00,,,0.00,728.000000,,2013-08-12 19:02:00,
2013-08-12 14:33:00,82.0,60.0,-100.00,NE,45,9.0,17.0,47,0.00,,,0.00,773.000000,,2013-08-12 19:33:00,
2013-08-12 14:43:00,82.0,60.0,-100.00,NE,45,9.0,17.0,47,0.00,,,0.00,773.000000,,2013-08-12 19:43:00,
2013-08-12 14:52:00,82.0,60.0,-100.00,NE,45,9.0,17.0,47,0.00,,,0.00,773.000000,,2013-08-12 19:52:00,
2013-08-12 15:02:00,82.0,60.0,-100.00,NE,45,9.0,17.0,47,0.00,,,0.00,773.000000,,2013-08-12 20:02:00,
2013-08-12 15:32:00,83.0,62.0,-100.00,NE,47,7.0,17.0,49,0.00,,,0.00,774.000000,,2013-08-12 20:32:00,
2013-08-12 15:42:00,83.0,62.0,-100.00,NE,47,7.0,17.0,49,0.00,,,0.00,774.000000,,2013-08-12 20:42:00,
2013-08-12 15:52:00,83.0,62.0,-100.00,NE,47,7.0,17.0,49,0.00,,,0.00,774.000000,,2013-08-12 20:52:00,
2013-08-12 16:01:00,83.0,62.0,-100.00,NE,47,7.0,17.0,49,0.00,,,0.00,774.000000,,2013-08-12 21:01:00,
2013-08-12 16:32:00,83.0,58.0,-100.00,NE,48,7.0,16.0,43,0.00,,,0.00,679.000000,,2013-08-12 21:32:00,
2013-08-12 16:43:00,83.0,58.0,-100.00,NE,48,7.0,16.0,43,0.00,,,0.00,679.000000,,2013-08-12 21:43:00,
2013-08-12 16:52:00,83.0,58.0,-100.00,NE,48,7.0,16.0,43,0.00,,,0.00,679.000000,,2013-08-12 21:52:00,
2013-08-12 17:02:00,83.0,58.0,-100.00,NE,48,7.0,16.0,43,0.00,,,0.00,679.000000,,2013-08-12 22:02:00,
2013-08-12 17:32:00,83.0,59.0,-100.00,North,10,7.0,14.0,45,0.00,,,0.00,571.000000,,2013-08-12 22:32:00,
2013-08-12 17:43:00,83.0,59.0,-100.00,North,10,7.0,14.0,45,0.00,,,0.00,571.000000,,2013-08-12 22:43:00,
2013-08-12 17:53:00,83.0,59.0,-100.00,North,10,7.0,14.0,45,0.00,,,0.00,571.000000,,2013-08-12 22:53:00,
2013-08-12 18:02:00,83.0,59.0,-100.00,North,10,7.0,14.0,45,0.00,,,0.00,571.000000,,2013-08-12 23:02:00,
2013-08-12 18:43:00,81.0,61.0,-100.00,NNE,14,6.0,15.0,50,0.00,,,0.00,338.000000,,2013-08-12 23:43:00,
2013-08-12 18:53:00,81.0,61.0,-100.00,NNE,14,6.0,15.0,50,0.00,,,0.00,338.000000,,2013-08-12 23:53:00,
2013-08-12 19:03:00,81.0,61.0,-100.00,NNE,14,6.0,15.0,50,0.00,,,0.00,338.000000,,2013-08-13 00:03:00,
2013-08-12 19:45:00,79.0,59.0,-100.00,North,355,6.0,14.0,51,0.00,,,0.00,238.000000,,2013-08-13 00:45:00,
2013-08-12 19:54:00,79.0,59.0,-100.00,North,355,6.0,14.0,51,0.00,,,0.00,238.000000,,2013-08-13 00:54:00,
2013-08-12 20:03:00,79.0,59.0,-100.00,North,355,6.0,14.0,51,0.00,,,0.00,238.000000,,2013-08-13 01:03:00,
2013-08-12 20:42:00,75.0,58.0,-100.00,North,355,4.0,10.0,56,0.00,,,0.00,67.000000,,2013-08-13 01:42:00,
2013-08-12 20:55:00,75.0,58.0,-100.00,North,355,4.0,10.0,56,0.00,,,0.00,67.000000,,2013-08-13 01:55:00,
2013-08-12 21:02:00,75.0,58.0,-100.00,North,355,4.0,10.0,56,0.00,,,0.00,67.000000,,2013-08-13 02:02:00,
2013-08-12 21:43:00,71.0,57.0,-100.00,North,11,4.0,7.0,62,0.00,,,0.00,1.000000,,2013-08-13 02:43:00,
2013-08-12 21:52:00,71.0,57.0,-100.00,North,11,4.0,7.0,62,0.00,,,0.00,1.000000,,2013-08-13 02:52:00,
2013-08-12 22:02:00,71.0,57.0,-100.00,North,11,4.0,7.0,62,0.00,,,0.00,1.000000,,2013-08-13 03:02:00,
2013-08-12 22:43:00,68.0,55.0,-100.00,NNE,20,4.0,7.0,64,0.00,,,0.00,0.000000,,2013-08-13 03:43:00,
2013-08-12 22:54:00,68.0,55.0,-100.00,NNE,20,4.0,7.0,64,0.00,,,0.00,0.000000,,2013-08-13 03:54:00,
2013-08-12 23:03:00,68.0,55.0,-100.00,NNE,20,4.0,7.0,64,0.00,,,0.00,0.000000,,2013-08-13 04:03:00,
2013-08-12 23:42:00,66.0,56.0,-100.00,North,359,3.0,6.0,69,0.00,,,0.00,0.000000,,2013-08-13 04:42:00,
2013-08-12 23:53:00,66.0,56.0,-100.00,North,359,3.0,6.0,69,0.00,,,0.00,0.000000,,2013-08-13 04:53:00,